Prishtina, Kosovo

12:37 AM CET on dhjetor 21, 2014 (GMT +0100)
Velania | Change Station
CLOSE
Current Station
Personal Weather Stations
Location: Prishtina, KOSOVO
Elevation: 2192 ft
Nearby Weather Stations

Elev 2192 ft 42.66 °N, 21.18 °E | Updated 4 seconds ago

Light Freezing Fog
mjegull e lehte e ngrire
39.7 °F
Feels Like 40 °F
N
2.2
Era e paqendrueshme Era from Jug
Gusts 2.2 mph

Sot
High -- | Low -- °F
--% Chance of Precip.
Yesterday
High -- | Low -- °F
Precip. -- ne
7:02 AM 4:04 PM
Waning Crescent, 2% visible
Presioni 30.15 ne
Visioni 0.1 milje
Clouds shumica me re 100 ft
Ftohtesia E erses 40 °F
Pika E Veses 27 °F
Lageshtira E ajrit 78%
Rainfall 0.00 ne
Snow Depth Not available.
UV 0 out of 12
Pollen Not available.
Air Quality Not available.
Flu Activity Not available.
METAR LWSK 202330Z 00000KT 0200 R34/0300N FZFG BKN001 M01/M02 Q1021 NOSIG

More Conditions Fewer Conditions

Presioni 30.15 ne
Visioni 0.1 milje
Clouds shumica me re 100 ft
Ftohtesia E erses 40 °F
Pika E Veses 27 °F
Lageshtira E ajrit 78%
Rainfall 0.00 ne
Snow Depth Not available.
UV 0 out of 12
Pollen Not available.
Air Quality Not available.
Flu Activity Not available.
METAR LWSK 202330Z 00000KT 0200 R34/0300N FZFG BKN001 M01/M02 Q1021 NOSIG

More Conditions Fewer Conditions

10-Day Weather Forecast

Almanac

Astronomy

Dec. 21, 2014 Rise Set
Actual Time
Civil Twilight
Nautical Twilight
Astronomical Twilight
Moon
Length Of Visible Light
Length of Day
Tomorrow will be .
, % of the Moon is Illuminated

Today's Extremes

Country Highs Country Lows

Community

WunderPhotos

Upload Photos

1,779,319 photos uploaded!

WunderBlogs® & News

Nearby

Air Quality

  Air Quality AQ Index Pollutant
Not available.

Snow Depth

Station Depth Elevation

Earthquake Activity

City Distance Mag. Time & Date
Minimum magnitude displayed is 2.5.

Coastal Water Temperatures

Vend Temperatura

Nearby Weather Stations